Terminal Aerodrome Forecast
Issued by NWS

Home | Current Version | Previous Version | Graphics & Text | Print | Product List | Glossary On
Versions: 1 2 3 4 5 6 7 8 9 10 11 12 13 14 15 16 17 18 19 20 21 22 23
238
FTUS43 KGRB 231138
TAFAUW
TAF
KAUW 231138Z 2312/2412 36008G16KT P6SM BKN015
      TEMPO 2312/2316 SCT015 BKN035
     FM231600 02007G15KT P6SM BKN035
     FM240500 06009G15KT P6SM -SN OVC025
     FM240700 06011G19KT 4SM -SN OVC015
     FM241000 06013G25KT 1 1/2SM -SN OVC010=

USA.gov is the U.S. government's official web portal to all federal, state and local government web resources and services.